sensor_id;sensor_type;location;lat;lon;timestamp;pressure;altitude;pressure_sealevel;temperature;humidity
55373;BME280;41249;47.838;16.490;2023-02-28T00:04:46;100298.63;;;-5.24;65.08
55373;BME280;41249;47.838;16.490;2023-02-28T00:07:19;100302.69;;;-5.26;65.38
55373;BME280;41249;47.838;16.490;2023-02-28T00:12:27;100302.41;;;-5.30;65.77
55373;BME280;41249;47.838;16.490;2023-02-28T00:14:53;100305.38;;;-5.31;65.73
55373;BME280;41249;47.838;16.490;2023-02-28T00:17:20;100300.25;;;-5.33;65.59
55373;BME280;41249;47.838;16.490;2023-02-28T00:19:51;100313.78;;;-5.33;65.76
55373;BME280;41249;47.838;16.490;2023-02-28T00:22:19;100312.16;;;-5.34;65.87
55373;BME280;41249;47.838;16.490;2023-02-28T00:24:46;100308.91;;;-5.36;65.87
55373;BME280;41249;47.838;16.490;2023-02-28T00:27:14;100308.91;;;-5.36;66.08
55373;BME280;41249;47.838;16.490;2023-02-28T00:29:41;100317.84;;;-5.35;65.76
55373;BME280;41249;47.838;16.490;2023-02-28T00:32:07;100314.31;;;-5.36;65.75
55373;BME280;41249;47.838;16.490;2023-02-28T00:34:34;100318.63;;;-5.35;65.89
55373;BME280;41249;47.838;16.490;2023-02-28T00:37:05;100317.03;;;-5.36;65.88
55373;BME280;41249;47.838;16.490;2023-02-28T00:39:34;100323.50;;;-5.37;66.41
55373;BME280;41249;47.838;16.490;2023-02-28T00:42:01;100315.69;;;-5.33;65.75
55373;BME280;41249;47.838;16.490;2023-02-28T00:44:29;100322.97;;;-5.34;65.83
55373;BME280;41249;47.838;16.490;2023-02-28T00:46:56;100320.81;;;-5.32;65.55
55373;BME280;41249;47.838;16.490;2023-02-28T00:49:23;100326.78;;;-5.20;64.78
55373;BME280;41249;47.838;16.490;2023-02-28T00:51:50;100320.31;;;-5.04;65.25
55373;BME280;41249;47.838;16.490;2023-02-28T00:54:18;100318.97;;;-4.96;65.14
55373;BME280;41249;47.838;16.490;2023-02-28T00:56:45;100314.63;;;-4.92;64.90
55373;BME280;41249;47.838;16.490;2023-02-28T00:59:16;100322.19;;;-4.89;65.43
55373;BME280;41249;47.838;16.490;2023-02-28T01:01:44;100333.84;;;-4.83;65.61
55373;BME280;41249;47.838;16.490;2023-02-28T01:04:12;100332.22;;;-4.79;64.90
55373;BME280;41249;47.838;16.490;2023-02-28T01:06:39;100324.63;;;-4.72;64.99
55373;BME280;41249;47.838;16.490;2023-02-28T01:09:07;100331.41;;;-4.70;65.01
55373;BME280;41249;47.838;16.490;2023-02-28T01:11:34;100330.31;;;-4.69;64.35
55373;BME280;41249;47.838;16.490;2023-02-28T01:14:02;100338.72;;;-4.65;65.08
55373;BME280;41249;47.838;16.490;2023-02-28T01:16:28;100332.75;;;-4.57;64.56
55373;BME280;41249;47.838;16.490;2023-02-28T01:18:55;100343.03;;;-4.54;65.14
55373;BME280;41249;47.838;16.490;2023-02-28T01:21:23;100332.19;;;-4.54;64.98
55373;BME280;41249;47.838;16.490;2023-02-28T01:23:50;100339.78;;;-4.56;65.21
55373;BME280;41249;47.838;16.490;2023-02-28T01:26:19;100337.63;;;-4.54;65.61
55373;BME280;41249;47.838;16.490;2023-02-28T01:28:46;100333.84;;;-4.48;65.35
55373;BME280;41249;47.838;16.490;2023-02-28T01:31:13;100341.66;;;-4.42;65.05
55373;BME280;41249;47.838;16.490;2023-02-28T01:33:41;100345.75;;;-4.49;65.63
55373;BME280;41249;47.838;16.490;2023-02-28T01:36:11;100336.00;;;-4.55;65.81
55373;BME280;41249;47.838;16.490;2023-02-28T01:38:39;100345.50;;;-4.58;65.47
55373;BME280;41249;47.838;16.490;2023-02-28T01:41:06;100345.75;;;-4.54;65.26
55373;BME280;41249;47.838;16.490;2023-02-28T01:43:54;100336.00;;;-4.55;65.75
55373;BME280;41249;47.838;16.490;2023-02-28T01:46:21;100333.31;;;-4.70;65.98
55373;BME280;41249;47.838;16.490;2023-02-28T01:48:51;100341.69;;;-4.82;66.37
55373;BME280;41249;47.838;16.490;2023-02-28T01:51:26;100336.81;;;-4.85;66.49
55373;BME280;41249;47.838;16.490;2023-02-28T01:54:00;100331.16;;;-4.93;66.38
55373;BME280;41249;47.838;16.490;2023-02-28T01:56:30;100333.84;;;-5.14;66.76
55373;BME280;41249;47.838;16.490;2023-02-28T01:58:59;100333.53;;;-5.22;66.99
55373;BME280;41249;47.838;16.490;2023-02-28T02:01:27;100329.22;;;-5.28;66.74
55373;BME280;41249;47.838;16.490;2023-02-28T02:04:01;100327.03;;;-5.41;67.24
55373;BME280;41249;47.838;16.490;2023-02-28T02:06:41;100326.16;;;-5.62;67.23
55373;BME280;41249;47.838;16.490;2023-02-28T02:09:08;100319.13;;;-5.63;66.97
55373;BME280;41249;47.838;16.490;2023-02-28T02:11:35;100318.53;;;-5.80;67.90
55373;BME280;41249;47.838;16.490;2023-02-28T02:14:37;100327.09;;;-5.98;68.13
55373;BME280;41249;47.838;16.490;2023-02-28T02:17:28;100322.69;;;-6.14;67.76
55373;BME280;41249;47.838;16.490;2023-02-28T02:34:40;100330.03;;;-6.52;67.17
55373;BME280;41249;47.838;16.490;2023-02-28T02:40:47;100327.50;;;-6.68;67.48
55373;BME280;41249;47.838;16.490;2023-02-28T02:43:19;100332.31;;;-6.75;67.27
55373;BME280;41249;47.838;16.490;2023-02-28T02:46:14;100333.06;;;-6.85;67.15
55373;BME280;41249;47.838;16.490;2023-02-28T02:48:43;100330.88;;;-6.88;67.69
55373;BME280;41249;47.838;16.490;2023-02-28T02:51:14;100330.78;;;-6.98;67.48
55373;BME280;41249;47.838;16.490;2023-02-28T02:54:06;100333.94;;;-7.06;67.89
55373;BME280;41249;47.838;16.490;2023-02-28T02:56:34;100332.06;;;-7.06;67.78
55373;BME280;41249;47.838;16.490;2023-02-28T02:59:05;100330.69;;;-7.08;67.97
55373;BME280;41249;47.838;16.490;2023-02-28T03:01:34;100330.69;;;-7.08;67.84
55373;BME280;41249;47.838;16.490;2023-02-28T03:04:08;100328.50;;;-7.11;68.38
55373;BME280;41249;47.838;16.490;2023-02-28T03:06:35;100329.00;;;-7.14;68.87
55373;BME280;41249;47.838;16.490;2023-02-28T03:09:02;100331.94;;;-7.21;69.26
55373;BME280;41249;47.838;16.490;2023-02-28T03:11:31;100330.56;;;-7.23;69.51
55373;BME280;41249;47.838;16.490;2023-02-28T03:16:45;100337.59;;;-7.22;69.38
55373;BME280;41249;47.838;16.490;2023-02-28T03:19:34;100336.00;;;-7.18;69.37
55373;BME280;41249;47.838;16.490;2023-02-28T03:22:35;100343.88;;;-7.12;68.98
55373;BME280;41249;47.838;16.490;2023-02-28T03:28:14;100344.09;;;-7.18;70.10
55373;BME280;41249;47.838;16.490;2023-02-28T03:30:49;100348.16;;;-7.16;69.58
55373;BME280;41249;47.838;16.490;2023-02-28T03:33:24;100346.56;;;-7.12;69.58
55373;BME280;41249;47.838;16.490;2023-02-28T03:36:21;100345.00;;;-7.08;69.30
55373;BME280;41249;47.838;16.490;2023-02-28T03:38:51;100344.19;;;-7.08;70.16
55373;BME280;41249;47.838;16.490;2023-02-28T03:41:24;100340.16;;;-7.06;69.34
55373;BME280;41249;47.838;16.490;2023-02-28T03:43:58;100339.44;;;-6.96;69.78
55373;BME280;41249;47.838;16.490;2023-02-28T03:46:29;100345.97;;;-6.92;70.39
55373;BME280;41249;47.838;16.490;2023-02-28T03:49:02;100342.72;;;-6.89;69.82
55373;BME280;41249;47.838;16.490;2023-02-28T03:51:32;100341.72;;;-6.83;69.05
55373;BME280;41249;47.838;16.490;2023-02-28T03:54:06;100339.59;;;-6.76;69.52
55373;BME280;41249;47.838;16.490;2023-02-28T03:56:47;100350.94;;;-6.74;68.73
55373;BME280;41249;47.838;16.490;2023-02-28T03:59:32;100348.53;;;-6.75;69.21
55373;BME280;41249;47.838;16.490;2023-02-28T04:02:00;100345.84;;;-6.70;68.78
55373;BME280;41249;47.838;16.490;2023-02-28T04:04:28;100342.88;;;-6.69;68.43
55373;BME280;41249;47.838;16.490;2023-02-28T04:07:07;100351.78;;;-6.73;69.47
55373;BME280;41249;47.838;16.490;2023-02-28T04:09:34;100344.72;;;-6.74;68.97
55373;BME280;41249;47.838;16.490;2023-02-28T04:12:01;100339.31;;;-6.74;68.20
55373;BME280;41249;47.838;16.490;2023-02-28T04:14:28;100344.75;;;-6.69;69.43
55373;BME280;41249;47.838;16.490;2023-02-28T04:16:55;100348.09;;;-6.62;68.77
55373;BME280;41249;47.838;16.490;2023-02-28T04:19:21;100344.09;;;-6.55;68.37
55373;BME280;41249;47.838;16.490;2023-02-28T04:21:52;100334.44;;;-6.41;68.18
55373;BME280;41249;47.838;16.490;2023-02-28T04:24:25;100346.94;;;-6.30;68.13
55373;BME280;41249;47.838;16.490;2023-02-28T04:26:54;100341.38;;;-6.13;68.14
55373;BME280;41249;47.838;16.490;2023-02-28T04:29:24;100344.97;;;-5.97;67.97
55373;BME280;41249;47.838;16.490;2023-02-28T04:31:51;100339.88;;;-5.84;67.80
55373;BME280;41249;47.838;16.490;2023-02-28T04:34:21;100348.81;;;-5.83;67.55
55373;BME280;41249;47.838;16.490;2023-02-28T04:36:48;100342.56;;;-5.84;67.38
55373;BME280;41249;47.838;16.490;2023-02-28T04:39:37;100339.56;;;-5.87;67.25
55373;BME280;41249;47.838;16.490;2023-02-28T04:42:04;100336.31;;;-5.89;67.15
55373;BME280;41249;47.838;16.490;2023-02-28T04:44:31;100332.81;;;-5.85;67.17
55373;BME280;41249;47.838;16.490;2023-02-28T04:46:58;100339.06;;;-5.84;66.25
55373;BME280;41249;47.838;16.490;2023-02-28T04:49:24;100337.44;;;-5.85;67.38
55373;BME280;41249;47.838;16.490;2023-02-28T04:51:51;100343.06;;;-5.92;66.81
55373;BME280;41249;47.838;16.490;2023-02-28T04:54:19;100339.53;;;-6.02;67.13
55373;BME280;41249;47.838;16.490;2023-02-28T04:56:46;100336.47;;;-6.16;67.99
55373;BME280;41249;47.838;16.490;2023-02-28T04:59:14;100349.06;;;-6.32;67.17
55373;BME280;41249;47.838;16.490;2023-02-28T05:01:46;100356.50;;;-6.54;68.57
55373;BME280;41249;47.838;16.490;2023-02-28T05:04:13;100356.66;;;-6.70;68.25
55373;BME280;41249;47.838;16.490;2023-02-28T05:06:39;100360.28;;;-6.86;68.43
55373;BME280;41249;47.838;16.490;2023-02-28T05:09:06;100358.59;;;-6.98;69.71
55373;BME280;41249;47.838;16.490;2023-02-28T05:11:33;100361.75;;;-7.06;68.94
55373;BME280;41249;47.838;16.490;2023-02-28T05:14:03;100361.38;;;-7.14;70.61
55373;BME280;41249;47.838;16.490;2023-02-28T05:16:30;100359.97;;;-7.22;70.40
55373;BME280;41249;47.838;16.490;2023-02-28T05:18:58;100363.94;;;-7.29;71.13
55373;BME280;41249;47.838;16.490;2023-02-28T05:21:30;100362.53;;;-7.37;70.67
55373;BME280;41249;47.838;16.490;2023-02-28T05:24:00;100366.78;;;-7.41;72.04
55373;BME280;41249;47.838;16.490;2023-02-28T05:26:28;100369.19;;;-7.44;71.95
55373;BME280;41249;47.838;16.490;2023-02-28T05:28:55;100368.63;;;-7.46;72.37
55373;BME280;41249;47.838;16.490;2023-02-28T05:31:22;100371.84;;;-7.49;71.55
55373;BME280;41249;47.838;16.490;2023-02-28T05:33:49;100379.94;;;-7.49;71.58
55373;BME280;41249;47.838;16.490;2023-02-28T05:36:16;100391.22;;;-7.52;71.79
55373;BME280;41249;47.838;16.490;2023-02-28T05:38:42;100388.47;;;-7.57;73.25
55373;BME280;41249;47.838;16.490;2023-02-28T05:41:11;100393.03;;;-7.58;72.70
55373;BME280;41249;47.838;16.490;2023-02-28T05:43:37;100393.78;;;-7.63;73.69
55373;BME280;41249;47.838;16.490;2023-02-28T05:46:06;100398.03;;;-7.67;73.30
55373;BME280;41249;47.838;16.490;2023-02-28T05:48:34;100396.16;;;-7.66;73.34
55373;BME280;41249;47.838;16.490;2023-02-28T05:51:01;100393.22;;;-7.65;74.19
55373;BME280;41249;47.838;16.490;2023-02-28T05:53:29;100400.00;;;-7.62;73.30
55373;BME280;41249;47.838;16.490;2023-02-28T05:55:56;100399.19;;;-7.63;73.96
55373;BME280;41249;47.838;16.490;2023-02-28T05:58:23;100396.00;;;-7.59;74.76
55373;BME280;41249;47.838;16.490;2023-02-28T06:00:49;100394.97;;;-7.53;74.20
55373;BME280;41249;47.838;16.490;2023-02-28T06:03:16;100406.84;;;-7.54;72.95
55373;BME280;41249;47.838;16.490;2023-02-28T06:05:42;100406.06;;;-7.50;73.04
55373;BME280;41249;47.838;16.490;2023-02-28T06:08:09;100409.31;;;-7.48;74.43
55373;BME280;41249;47.838;16.490;2023-02-28T06:10:36;100407.19;;;-7.46;74.01
55373;BME280;41249;47.838;16.490;2023-02-28T06:13:04;100414.44;;;-7.46;72.71
55373;BME280;41249;47.838;16.490;2023-02-28T06:15:31;100417.97;;;-7.46;72.74
55373;BME280;41249;47.838;16.490;2023-02-28T06:17:58;100414.91;;;-7.33;72.42
55373;BME280;41249;47.838;16.490;2023-02-28T06:20:26;100428.59;;;-7.39;72.61
55373;BME280;41249;47.838;16.490;2023-02-28T06:22:56;100419.41;;;-7.38;73.18
55373;BME280;41249;47.838;16.490;2023-02-28T06:25:26;100424.09;;;-7.29;72.75
55373;BME280;41249;47.838;16.490;2023-02-28T06:27:54;100421.22;;;-7.22;72.78
55373;BME280;41249;47.838;16.490;2023-02-28T06:30:21;100425.97;;;-7.08;71.98
55373;BME280;41249;47.838;16.490;2023-02-28T06:32:51;100419.84;;;-6.98;73.39
55373;BME280;41249;47.838;16.490;2023-02-28T06:35:18;100419.69;;;-6.86;72.86
55373;BME280;41249;47.838;16.490;2023-02-28T06:37:45;100427.63;;;-6.75;72.25
55373;BME280;41249;47.838;16.490;2023-02-28T06:40:13;100425.81;;;-6.64;72.82
55373;BME280;41249;47.838;16.490;2023-02-28T06:42:40;100422.13;;;-6.53;71.92
55373;BME280;41249;47.838;16.490;2023-02-28T06:45:07;100420.88;;;-6.41;71.68
55373;BME280;41249;47.838;16.490;2023-02-28T06:47:37;100412.34;;;-6.27;71.34
55373;BME280;41249;47.838;16.490;2023-02-28T06:50:05;100418.56;;;-6.22;71.07
55373;BME280;41249;47.838;16.490;2023-02-28T06:52:32;100419.97;;;-6.14;70.88
55373;BME280;41249;47.838;16.490;2023-02-28T06:54:58;100420.31;;;-6.06;70.26
55373;BME280;41249;47.838;16.490;2023-02-28T06:57:32;100431.47;;;-5.92;70.81
55373;BME280;41249;47.838;16.490;2023-02-28T07:00:01;100425.59;;;-5.79;70.22
55373;BME280;41249;47.838;16.490;2023-02-28T07:02:27;100433.47;;;-5.78;69.94
55373;BME280;41249;47.838;16.490;2023-02-28T07:04:54;100429.94;;;-5.78;70.41
55373;BME280;41249;47.838;16.490;2023-02-28T07:07:21;100438.13;;;-5.63;70.33
55373;BME280;41249;47.838;16.490;2023-02-28T07:09:48;100438.66;;;-5.66;70.56
55373;BME280;41249;47.838;16.490;2023-02-28T07:12:15;100433.81;;;-5.59;71.34
55373;BME280;41249;47.838;16.490;2023-02-28T07:14:41;100432.78;;;-5.53;71.53
55373;BME280;41249;47.838;16.490;2023-02-28T07:17:09;100440.66;;;-5.41;72.58
55373;BME280;41249;47.838;16.490;2023-02-28T07:19:39;100433.94;;;-5.29;71.02
55373;BME280;41249;47.838;16.490;2023-02-28T07:22:06;100438.88;;;-5.16;72.07
55373;BME280;41249;47.838;16.490;2023-02-28T07:24:33;100442.06;;;-5.24;72.16
55373;BME280;41249;47.838;16.490;2023-02-28T07:27:00;100438.88;;;-5.11;70.98
55373;BME280;41249;47.838;16.490;2023-02-28T07:29:27;100444.56;;;-5.07;71.78
55373;BME280;41249;47.838;16.490;2023-02-28T07:31:53;100444.84;;;-4.98;71.91
55373;BME280;41249;47.838;16.490;2023-02-28T07:34:21;100444.34;;;-4.85;72.12
55373;BME280;41249;47.838;16.490;2023-02-28T07:36:47;100450.31;;;-4.83;71.39
55373;BME280;41249;47.838;16.490;2023-02-28T07:39:14;100448.72;;;-4.59;70.83
55373;BME280;41249;47.838;16.490;2023-02-28T07:41:40;100453.88;;;-4.58;70.53
55373;BME280;41249;47.838;16.490;2023-02-28T07:44:10;100446.00;;;-4.64;70.70
55373;BME280;41249;47.838;16.490;2023-02-28T07:46:37;100453.06;;;-4.33;71.01
55373;BME280;41249;47.838;16.490;2023-02-28T07:49:04;100447.91;;;-4.29;69.11
55373;BME280;41249;47.838;16.490;2023-02-28T07:51:32;100453.59;;;-4.16;69.08
55373;BME280;41249;47.838;16.490;2023-02-28T07:53:58;100460.63;;;-3.95;69.41
55373;BME280;41249;47.838;16.490;2023-02-28T07:56:25;100463.31;;;-3.90;69.82
55373;BME280;41249;47.838;16.490;2023-02-28T07:58:52;100464.38;;;-3.65;70.25
55373;BME280;41249;47.838;16.490;2023-02-28T08:01:19;100461.66;;;-2.96;69.30
55373;BME280;41249;47.838;16.490;2023-02-28T08:03:46;100469.66;;;-2.71;67.89
55373;BME280;41249;47.838;16.490;2023-02-28T08:06:23;100471.03;;;-2.74;67.72
55373;BME280;41249;47.838;16.490;2023-02-28T08:08:50;100470.22;;;-2.41;67.47
55373;BME280;41249;47.838;16.490;2023-02-28T08:11:17;100474.31;;;-2.04;67.28
55373;BME280;41249;47.838;16.490;2023-02-28T08:13:45;100472.06;;;-1.97;65.26
55373;BME280;41249;47.838;16.490;2023-02-28T08:16:12;100476.38;;;-1.91;65.22
55373;BME280;41249;47.838;16.490;2023-02-28T08:18:44;100473.91;;;-1.93;65.12
55373;BME280;41249;47.838;16.490;2023-02-28T08:21:10;100470.75;;;-2.05;65.99
55373;BME280;41249;47.838;16.490;2023-02-28T08:23:37;100481.69;;;-2.44;66.84
55373;BME280;41249;47.838;16.490;2023-02-28T08:26:04;100473.59;;;-2.49;66.05
55373;BME280;41249;47.838;16.490;2023-02-28T08:28:31;100468.94;;;-2.48;66.16
55373;BME280;41249;47.838;16.490;2023-02-28T08:30:58;100476.41;;;-2.30;65.60
55373;BME280;41249;47.838;16.490;2023-02-28T08:33:27;100478.63;;;-2.32;66.37
55373;BME280;41249;47.838;16.490;2023-02-28T08:35:55;100480.44;;;-2.22;66.35
55373;BME280;41249;47.838;16.490;2023-02-28T08:38:22;100475.34;;;-2.00;66.58
55373;BME280;41249;47.838;16.490;2023-02-28T08:40:49;100473.56;;;-1.81;65.51
55373;BME280;41249;47.838;16.490;2023-02-28T08:43:16;100472.88;;;-1.44;64.23
55373;BME280;41249;47.838;16.490;2023-02-28T08:45:43;100477.72;;;-1.18;64.97
55373;BME280;41249;47.838;16.490;2023-02-28T08:48:09;100473.78;;;-1.30;63.76
55373;BME280;41249;47.838;16.490;2023-02-28T08:50:36;100473.16;;;-1.46;65.35
55373;BME280;41249;47.838;16.490;2023-02-28T08:53:03;100470.22;;;-1.49;64.46
55373;BME280;41249;47.838;16.490;2023-02-28T08:55:30;100471.97;;;-1.63;63.51
55373;BME280;41249;47.838;16.490;2023-02-28T08:57:56;100476.25;;;-1.29;64.56
55373;BME280;41249;47.838;16.490;2023-02-28T09:00:24;100476.97;;;-1.23;63.33
55373;BME280;41249;47.838;16.490;2023-02-28T09:02:51;100475.06;;;-1.23;62.91
55373;BME280;41249;47.838;16.490;2023-02-28T09:05:18;100474.38;;;-0.91;63.03
55373;BME280;41249;47.838;16.490;2023-02-28T09:07:44;100464.81;;;-1.31;60.54
55373;BME280;41249;47.838;16.490;2023-02-28T09:10:11;100471.59;;;-1.28;61.47
55373;BME280;41249;47.838;16.490;2023-02-28T09:12:37;100464.72;;;-1.02;60.68
55373;BME280;41249;47.838;16.490;2023-02-28T09:15:05;100467.56;;;-0.70;61.17
55373;BME280;41249;47.838;16.490;2023-02-28T09:17:31;100470.81;;;-0.86;60.02
55373;BME280;41249;47.838;16.490;2023-02-28T09:19:58;100475.44;;;-0.68;60.72
55373;BME280;41249;47.838;16.490;2023-02-28T09:22:24;100472.91;;;-0.46;61.53
55373;BME280;41249;47.838;16.490;2023-02-28T09:24:51;100477.94;;;-0.53;59.71
55373;BME280;41249;47.838;16.490;2023-02-28T09:27:18;100473.97;;;-0.42;60.39
55373;BME280;41249;47.838;16.490;2023-02-28T09:29:44;100476.91;;;-0.57;59.08
55373;BME280;41249;47.838;16.490;2023-02-28T09:32:11;100469.75;;;-0.34;59.96
55373;BME280;41249;47.838;16.490;2023-02-28T09:34:38;100471.91;;;-0.31;59.21
55373;BME280;41249;47.838;16.490;2023-02-28T09:37:04;100461.84;;;-0.36;59.18
55373;BME280;41249;47.838;16.490;2023-02-28T09:39:31;100470.41;;;-0.61;59.65
55373;BME280;41249;47.838;16.490;2023-02-28T09:41:58;100470.25;;;-0.88;59.10
55373;BME280;41249;47.838;16.490;2023-02-28T09:44:37;100467.41;;;-0.60;59.70
55373;BME280;41249;47.838;16.490;2023-02-28T09:47:17;100482.75;;;-0.45;59.60
55373;BME280;41249;47.838;16.490;2023-02-28T09:49:48;100474.31;;;-0.30;60.56
55373;BME280;41249;47.838;16.490;2023-02-28T09:52:18;100476.72;;;-0.10;59.69
55373;BME280;41249;47.838;16.490;2023-02-28T09:54:45;100476.56;;;-0.18;59.46
55373;BME280;41249;47.838;16.490;2023-02-28T09:57:33;100468.31;;;0.46;58.52
55373;BME280;41249;47.838;16.490;2023-02-28T10:00:18;100479.09;;;0.97;58.83
55373;BME280;41249;47.838;16.490;2023-02-28T10:02:57;100472.97;;;1.27;57.78
55373;BME280;41249;47.838;16.490;2023-02-28T10:05:39;100465.78;;;1.31;57.29
55373;BME280;41249;47.838;16.490;2023-02-28T10:08:19;100469.13;;;1.28;57.26
55373;BME280;41249;47.838;16.490;2023-02-28T10:11:02;100470.53;;;1.62;57.51
55373;BME280;41249;47.838;16.490;2023-02-28T10:16:37;100465.16;;;1.34;57.13
55373;BME280;41249;47.838;16.490;2023-02-28T10:19:23;100469.09;;;1.42;57.91
55373;BME280;41249;47.838;16.490;2023-02-28T10:21:57;100467.00;;;1.61;57.80
55373;BME280;41249;47.838;16.490;2023-02-28T10:24:42;100463.16;;;1.62;57.98
55373;BME280;41249;47.838;16.490;2023-02-28T10:27:23;100456.72;;;1.44;57.02
55373;BME280;41249;47.838;16.490;2023-02-28T10:29:52;100453.94;;;1.22;57.73
55373;BME280;41249;47.838;16.490;2023-02-28T10:37:31;100456.72;;;1.44;55.96
55373;BME280;41249;47.838;16.490;2023-02-28T10:39:58;100451.50;;;1.21;55.27
55373;BME280;41249;47.838;16.490;2023-02-28T10:42:27;100452.53;;;1.83;55.84
55373;BME280;41249;47.838;16.490;2023-02-28T10:45:13;100448.41;;;1.94;55.10
55373;BME280;41249;47.838;16.490;2023-02-28T10:47:52;100437.06;;;2.09;55.62
55373;BME280;41249;47.838;16.490;2023-02-28T10:55:45;100445.56;;;2.38;55.05
55373;BME280;41249;47.838;16.490;2023-02-28T10:58:23;100431.44;;;2.45;54.18
55373;BME280;41249;47.838;16.490;2023-02-28T11:00:51;100431.59;;;2.48;54.86
55373;BME280;41249;47.838;16.490;2023-02-28T11:03:32;100431.13;;;3.03;51.72
55373;BME280;41249;47.838;16.490;2023-02-28T11:06:12;100424.81;;;2.85;53.27
55373;BME280;41249;47.838;16.490;2023-02-28T11:08:52;100424.09;;;2.71;53.79
55373;BME280;41249;47.838;16.490;2023-02-28T11:11:21;100424.50;;;1.86;53.41
55373;BME280;41249;47.838;16.490;2023-02-28T11:13:55;100418.75;;;0.94;55.30
55373;BME280;41249;47.838;16.490;2023-02-28T11:16:35;100425.31;;;0.25;55.04
55373;BME280;41249;47.838;16.490;2023-02-28T11:19:05;100411.22;;;-0.10;55.65
55373;BME280;41249;47.838;16.490;2023-02-28T11:21:36;100408.91;;;-0.03;56.76
55373;BME280;41249;47.838;16.490;2023-02-28T11:26:48;100414.09;;;0.40;56.37
55373;BME280;41249;47.838;16.490;2023-02-28T11:29:19;100414.22;;;0.48;57.02
55373;BME280;41249;47.838;16.490;2023-02-28T11:32:16;100406.91;;;0.71;55.82
55373;BME280;41249;47.838;16.490;2023-02-28T11:34:43;100402.44;;;1.02;56.22
55373;BME280;41249;47.838;16.490;2023-02-28T11:37:18;100408.28;;;1.23;54.69
55373;BME280;41249;47.838;16.490;2023-02-28T11:39:46;100401.25;;;1.30;55.21
55373;BME280;41249;47.838;16.490;2023-02-28T11:45:03;100396.84;;;1.07;56.08
55373;BME280;41249;47.838;16.490;2023-02-28T11:47:59;100397.31;;;0.87;56.06
55373;BME280;41249;47.838;16.490;2023-02-28T11:50:52;100397.69;;;0.94;55.14
55373;BME280;41249;47.838;16.490;2023-02-28T11:55:56;100391.53;;;1.46;55.29
55373;BME280;41249;47.838;16.490;2023-02-28T12:06:30;100372.72;;;3.11;51.29
55373;BME280;41249;47.838;16.490;2023-02-28T12:14:14;100367.22;;;3.11;50.85
55373;BME280;41249;47.838;16.490;2023-02-28T12:17:03;100371.38;;;2.26;50.29
55373;BME280;41249;47.838;16.490;2023-02-28T12:28:42;100368.91;;;1.55;53.50
55373;BME280;41249;47.838;16.490;2023-02-28T12:31:16;100366.91;;;1.46;53.23
55373;BME280;41249;47.838;16.490;2023-02-28T12:33:51;100365.44;;;1.63;53.21
55373;BME280;41249;47.838;16.490;2023-02-28T12:36:20;100368.41;;;1.75;53.43
55373;BME280;41249;47.838;16.490;2023-02-28T12:41:36;100354.47;;;1.18;52.68
55373;BME280;41249;47.838;16.490;2023-02-28T12:44:12;100360.22;;;1.08;53.63
55373;BME280;41249;47.838;16.490;2023-02-28T12:46:48;100349.69;;;1.24;53.96
55373;BME280;41249;47.838;16.490;2023-02-28T12:49:26;100350.44;;;1.16;53.17
55373;BME280;41249;47.838;16.490;2023-02-28T12:51:57;100350.19;;;1.26;53.24
55373;BME280;41249;47.838;16.490;2023-02-28T12:54:46;100343.72;;;1.22;53.77
55373;BME280;41249;47.838;16.490;2023-02-28T12:57:23;100344.84;;;1.21;53.75
55373;BME280;41249;47.838;16.490;2023-02-28T12:59:59;100342.53;;;1.14;52.87
55373;BME280;41249;47.838;16.490;2023-02-28T13:10:43;100335.97;;;1.37;53.06
55373;BME280;41249;47.838;16.490;2023-02-28T13:13:19;100343.38;;;1.37;53.21
55373;BME280;41249;47.838;16.490;2023-02-28T13:16:02;100339.75;;;1.50;52.44
55373;BME280;41249;47.838;16.490;2023-02-28T13:18:35;100331.00;;;1.39;53.26
55373;BME280;41249;47.838;16.490;2023-02-28T13:21:05;100324.91;;;1.20;53.06
55373;BME280;41249;47.838;16.490;2023-02-28T13:26:01;100326.34;;;1.18;54.11
55373;BME280;41249;47.838;16.490;2023-02-28T13:28:59;100325.28;;;1.27;52.35
55373;BME280;41249;47.838;16.490;2023-02-28T13:31:27;100327.03;;;1.45;53.66
55373;BME280;41249;47.838;16.490;2023-02-28T13:36:29;100323.59;;;1.40;54.36
55373;BME280;41249;47.838;16.490;2023-02-28T13:38:58;100322.16;;;1.42;54.77
55373;BME280;41249;47.838;16.490;2023-02-28T13:46:30;100313.44;;;0.96;55.05
55373;BME280;41249;47.838;16.490;2023-02-28T13:49:27;100316.59;;;0.90;55.86
55373;BME280;41249;47.838;16.490;2023-02-28T14:00:44;100316.34;;;1.35;55.12
55373;BME280;41249;47.838;16.490;2023-02-28T14:03:27;100315.63;;;1.52;54.35
55373;BME280;41249;47.838;16.490;2023-02-28T14:08:57;100315.44;;;1.48;54.09
55373;BME280;41249;47.838;16.490;2023-02-28T14:11:28;100320.50;;;1.33;54.78
55373;BME280;41249;47.838;16.490;2023-02-28T14:13:58;100311.78;;;1.31;54.41
55373;BME280;41249;47.838;16.490;2023-02-28T14:16:27;100310.34;;;1.56;53.86
55373;BME280;41249;47.838;16.490;2023-02-28T14:19:22;100310.84;;;1.97;53.49
55373;BME280;41249;47.838;16.490;2023-02-28T14:32:49;100307.53;;;3.16;51.07
55373;BME280;41249;47.838;16.490;2023-02-28T14:35:35;100299.78;;;3.10;52.19
55373;BME280;41249;47.838;16.490;2023-02-28T14:38:19;100296.72;;;3.20;49.44
55373;BME280;41249;47.838;16.490;2023-02-28T14:40:49;100302.34;;;3.23;51.83
55373;BME280;41249;47.838;16.490;2023-02-28T14:43:25;100290.09;;;3.21;51.26
55373;BME280;41249;47.838;16.490;2023-02-28T14:45:55;100291.06;;;3.16;50.95
55373;BME280;41249;47.838;16.490;2023-02-28T14:48:24;100298.00;;;2.88;51.24
55373;BME280;41249;47.838;16.490;2023-02-28T14:51:00;100298.00;;;2.06;51.81
55373;BME280;41249;47.838;16.490;2023-02-28T14:53:35;100298.13;;;1.92;50.08
55373;BME280;41249;47.838;16.490;2023-02-28T14:56:02;100311.25;;;1.51;53.17
55373;BME280;41249;47.838;16.490;2023-02-28T14:58:32;100301.88;;;1.43;52.15
55373;BME280;41249;47.838;16.490;2023-02-28T15:01:02;100301.16;;;1.29;52.69